createdAt,value
2019-03-26T00:00:55.065Z,1.63
2019-03-26T00:03:25.137Z,1.77
2019-03-26T00:05:55.332Z,2.20
2019-03-26T00:08:25.704Z,1.40
2019-03-26T00:10:55.848Z,1.70
2019-03-26T00:13:25.942Z,1.33
2019-03-26T00:15:59.092Z,1.50
2019-03-26T00:18:52.888Z,1.80
2019-03-26T00:21:22.960Z,1.67
2019-03-26T00:23:53.113Z,1.67
2019-03-26T00:26:23.424Z,1.50
2019-03-26T00:28:53.508Z,1.57
2019-03-26T00:31:23.584Z,1.90
2019-03-26T00:33:53.678Z,1.80
2019-03-26T00:36:24.120Z,1.90
2019-03-26T00:38:54.201Z,2.23
2019-03-26T00:41:24.285Z,1.73
2019-03-26T00:43:54.439Z,1.50
2019-03-26T00:46:24.517Z,1.27
2019-03-26T00:48:54.600Z,1.50
2019-03-26T00:51:24.695Z,2.23
2019-03-26T00:53:54.848Z,1.70
2019-03-26T00:56:24.920Z,2.20
2019-03-26T00:58:55.288Z,1.70
2019-03-26T01:01:25.364Z,1.97
2019-03-26T01:03:55.452Z,1.90
2019-03-26T01:06:25.621Z,2.03
2019-03-26T01:08:55.680Z,1.83
2019-03-26T01:11:26.072Z,1.80
2019-03-26T01:13:56.237Z,2.23
2019-03-26T01:16:26.293Z,2.23
2019-03-26T01:18:56.359Z,2.07
2019-03-26T01:21:26.757Z,2.10
2019-03-26T01:23:57.089Z,1.70
2019-03-26T01:26:27.200Z,2.60
2019-03-26T01:28:57.296Z,1.80
2019-03-26T01:31:27.376Z,1.87
2019-03-26T01:33:57.456Z,1.93
2019-03-26T01:36:27.562Z,2.00
2019-03-26T01:38:57.709Z,2.20
2019-03-26T01:41:27.772Z,1.90
2019-03-26T01:43:57.862Z,1.90
2019-03-26T01:46:28.012Z,1.70
2019-03-26T01:48:58.086Z,1.90
2019-03-26T01:51:28.172Z,1.60
2019-03-26T01:53:58.244Z,2.10
2019-03-26T01:56:28.417Z,2.07
2019-03-26T01:58:58.586Z,2.53
2019-03-26T02:01:28.958Z,1.80
2019-03-26T02:03:59.047Z,2.10
2019-03-26T02:06:29.113Z,1.80
2019-03-26T02:08:59.200Z,1.90
2019-03-26T02:11:29.368Z,1.93
2019-03-26T02:13:59.445Z,1.60
2019-03-26T02:16:29.773Z,1.97
2019-03-26T02:18:59.852Z,1.83
2019-03-26T02:21:29.929Z,1.80
2019-03-26T02:24:00.000Z,2.10
2019-03-26T02:26:30.081Z,2.27
2019-03-26T02:29:00.469Z,2.10
2019-03-26T02:31:30.541Z,1.90
2019-03-26T02:34:00.643Z,1.80
2019-03-26T02:36:31.000Z,2.03
2019-03-26T02:39:01.077Z,2.17
2019-03-26T02:41:31.162Z,2.33
2019-03-26T02:44:01.304Z,1.90
2019-03-26T02:46:31.399Z,2.47
2019-03-26T02:49:01.483Z,1.77
2019-03-26T02:51:31.565Z,2.47
2019-03-26T02:54:01.644Z,2.40
2019-03-26T02:56:31.738Z,2.33
2019-03-26T02:59:01.982Z,2.47
2019-03-26T03:01:32.414Z,2.63
2019-03-26T03:04:02.492Z,2.43
2019-03-26T03:06:32.563Z,2.47
2019-03-26T03:09:04.316Z,2.30
2019-03-26T03:11:34.624Z,3.13
2019-03-26T03:14:04.723Z,2.60
2019-03-26T03:16:42.440Z,2.33
2019-03-26T03:19:15.581Z,2.30
2019-03-26T03:21:44.320Z,1.80
2019-03-26T03:24:14.645Z,2.33
2019-03-26T03:26:45.060Z,2.70
2019-03-26T03:29:15.145Z,2.07
2019-03-26T03:31:45.219Z,2.60
2019-03-26T03:34:15.322Z,2.50
2019-03-26T03:36:45.392Z,2.53
2019-03-26T03:39:15.457Z,2.50
2019-03-26T03:41:45.542Z,2.37
2019-03-26T03:44:15.687Z,2.30
2019-03-26T03:46:47.597Z,2.90
2019-03-26T03:49:21.413Z,2.77
2019-03-26T03:51:53.009Z,2.90
2019-03-26T03:54:23.799Z,2.60
2019-03-26T03:56:55.856Z,2.33
2019-03-26T03:59:28.160Z,2.67
2019-03-26T04:01:58.495Z,2.67
2019-03-26T04:04:28.820Z,2.60
2019-03-26T04:06:59.144Z,2.47
2019-03-26T04:09:29.562Z,2.53
2019-03-26T04:11:59.715Z,2.30
2019-03-26T04:14:29.810Z,1.90
2019-03-26T04:17:00.232Z,3.40
2019-03-26T04:19:30.652Z,2.83
2019-03-26T04:22:01.018Z,2.83
2019-03-26T04:24:31.105Z,2.63
2019-03-26T04:27:01.260Z,3.00
2019-03-26T04:29:31.333Z,3.10
2019-03-26T04:32:01.422Z,2.70
2019-03-26T04:34:31.506Z,3.00
2019-03-26T04:37:01.572Z,2.80
2019-03-26T04:39:32.488Z,2.30
2019-03-26T04:42:02.810Z,3.03
2019-03-26T04:44:32.896Z,2.77
2019-03-26T04:47:02.984Z,2.50
2019-03-26T04:49:33.058Z,3.20
2019-03-26T04:52:03.145Z,2.60
2019-03-26T04:54:33.749Z,3.10
2019-03-26T04:57:04.169Z,3.07
2019-03-26T04:59:34.241Z,2.87
2019-03-26T05:02:04.341Z,3.07
2019-03-26T05:04:34.416Z,3.00
2019-03-26T05:07:04.580Z,3.00
2019-03-26T05:09:34.672Z,3.27
2019-03-26T05:12:05.082Z,2.90
2019-03-26T05:14:35.173Z,2.93
2019-03-26T05:17:05.265Z,3.23
2019-03-26T05:19:35.340Z,3.00
2019-03-26T05:22:05.757Z,3.50
2019-03-26T05:24:35.830Z,4.00
2019-03-26T05:27:05.908Z,3.87
2019-03-26T05:29:36.084Z,3.60
2019-03-26T05:32:06.538Z,3.93
2019-03-26T05:34:36.617Z,3.03
2019-03-26T05:37:06.989Z,3.27
2019-03-26T05:39:37.057Z,3.10
2019-03-26T05:42:07.132Z,4.00
2019-03-26T05:44:37.207Z,3.40
2019-03-26T05:47:07.516Z,3.50
2019-03-26T05:49:37.893Z,3.70
2019-03-26T05:52:07.976Z,3.90
2019-03-26T05:54:38.324Z,3.30
2019-03-26T05:57:08.399Z,3.20
2019-03-26T05:59:38.497Z,4.00
2019-03-26T06:02:14.184Z,2.67
2019-03-26T06:04:40.481Z,3.20
2019-03-26T06:07:10.573Z,3.97
2019-03-26T06:09:41.078Z,3.77
2019-03-26T06:12:11.411Z,4.43
2019-03-26T06:14:41.480Z,4.03
2019-03-26T06:17:12.149Z,4.60
2019-03-26T06:19:42.223Z,4.67
2019-03-26T06:22:12.597Z,4.47
2019-03-26T06:24:43.010Z,4.13
2019-03-26T06:27:13.148Z,3.97
2019-03-26T06:29:43.565Z,4.60
2019-03-26T06:32:13.724Z,2.97
2019-03-26T06:34:44.074Z,3.10
2019-03-26T06:37:18.070Z,3.97
2019-03-26T06:39:47.645Z,3.73
2019-03-26T06:42:18.201Z,4.63
2019-03-26T06:44:48.264Z,4.20
2019-03-26T06:47:18.424Z,4.30
2019-03-26T06:49:48.808Z,3.27
2019-03-26T06:52:18.885Z,3.70
2019-03-26T06:54:51.601Z,3.27
2019-03-26T06:57:21.006Z,3.03
2019-03-26T06:59:51.085Z,3.70
2019-03-26T07:02:21.451Z,3.60
2019-03-26T07:04:51.597Z,3.53
2019-03-26T07:07:31.454Z,4.57
2019-03-26T07:09:54.044Z,4.23
2019-03-26T07:12:24.390Z,4.70
2019-03-26T07:14:54.441Z,4.00
2019-03-26T07:17:27.244Z,4.57
2019-03-26T07:19:57.637Z,3.70
2019-03-26T07:22:27.715Z,3.40
2019-03-26T07:24:57.796Z,4.50
2019-03-26T07:27:27.951Z,4.13
2019-03-26T07:29:58.485Z,8.73
2019-03-26T07:32:29.525Z,9.20
2019-03-26T07:34:59.928Z,8.37
2019-03-26T07:37:29.992Z,5.47
2019-03-26T07:40:00.451Z,5.67
2019-03-26T07:42:30.607Z,4.60
2019-03-26T07:45:01.039Z,4.27
2019-03-26T07:47:31.121Z,5.00
2019-03-26T07:50:01.204Z,5.23
2019-03-26T07:52:31.697Z,4.77
2019-03-26T07:55:02.018Z,4.97
2019-03-26T07:57:32.096Z,4.57
2019-03-26T08:00:02.536Z,5.80
2019-03-26T08:02:32.884Z,7.93
2019-03-26T08:05:03.318Z,6.83
2019-03-26T08:07:43.784Z,6.40
2019-03-26T08:10:14.721Z,5.70
2019-03-26T08:12:45.356Z,5.23
2019-03-26T08:15:15.526Z,5.13
2019-03-26T08:18:15.169Z,4.10
2019-03-26T08:20:46.209Z,4.20
2019-03-26T08:23:16.632Z,3.73
2019-03-26T08:25:46.961Z,3.97
2019-03-26T08:28:17.048Z,3.50
2019-03-26T08:30:50.134Z,3.60
2019-03-26T08:33:19.454Z,3.90
2019-03-26T08:35:49.581Z,3.60
2019-03-26T08:38:19.661Z,4.23
2019-03-26T08:40:49.747Z,4.43
2019-03-26T08:43:22.298Z,4.70
2019-03-26T08:45:52.697Z,4.10
2019-03-26T08:48:22.805Z,3.97
2019-03-26T08:50:53.157Z,4.30
2019-03-26T08:53:23.585Z,5.07
2019-03-26T08:55:54.117Z,4.50
2019-03-26T08:58:24.288Z,4.20
2019-03-26T09:01:02.540Z,3.70
2019-03-26T09:03:32.964Z,3.73
2019-03-26T09:06:03.180Z,3.27
2019-03-26T09:08:33.304Z,3.30
2019-03-26T09:11:16.777Z,3.40
2019-03-26T09:13:46.948Z,2.83
2019-03-26T09:16:17.273Z,3.07
2019-03-26T09:18:47.360Z,2.40
2019-03-26T09:21:17.439Z,2.50
2019-03-26T09:23:47.584Z,2.97
2019-03-26T09:26:17.952Z,3.53
2019-03-26T09:28:48.160Z,2.93
2019-03-26T09:31:18.321Z,2.63
2019-03-26T09:33:48.437Z,3.43
2019-03-26T09:36:18.856Z,3.20
2019-03-26T09:38:48.961Z,3.20
2019-03-26T09:41:19.381Z,2.93
2019-03-26T09:43:49.706Z,3.90
2019-03-26T09:46:19.805Z,3.33
2019-03-26T09:49:05.316Z,4.30
2019-03-26T09:51:35.409Z,4.03
2019-03-26T09:54:05.498Z,3.20
2019-03-26T09:56:36.172Z,4.13
2019-03-26T09:59:06.602Z,3.53
2019-03-26T10:01:37.131Z,4.07
2019-03-26T10:04:07.552Z,4.53
2019-03-26T10:06:37.690Z,3.73
2019-03-26T10:09:08.373Z,4.17
2019-03-26T10:11:38.445Z,4.07
2019-03-26T10:14:08.846Z,4.83
2019-03-26T10:16:39.095Z,4.53
2019-03-26T10:19:09.185Z,4.93
2019-03-26T10:21:39.610Z,4.83
2019-03-26T10:24:09.775Z,5.50
2019-03-26T10:26:39.932Z,4.77
2019-03-26T10:29:30.000Z,5.00
2019-03-26T10:31:55.902Z,5.47
2019-03-26T10:34:26.582Z,4.70
2019-03-26T10:36:56.794Z,5.10
2019-03-26T10:39:28.105Z,5.27
2019-03-26T10:41:58.185Z,5.50
2019-03-26T10:44:28.594Z,5.40
2019-03-26T10:46:59.017Z,5.47
2019-03-26T10:49:29.341Z,4.50
2019-03-26T10:55:28.705Z,5.10
2019-03-26T10:57:59.945Z,4.90
2019-03-26T11:00:30.091Z,4.53
2019-03-26T11:03:00.521Z,4.60
2019-03-26T11:05:30.673Z,4.93
2019-03-26T11:08:01.604Z,4.47
2019-03-26T11:10:33.672Z,4.37
2019-03-26T11:13:05.956Z,5.20
2019-03-26T11:15:36.361Z,4.37
2019-03-26T11:18:06.774Z,4.17
2019-03-26T11:20:38.188Z,4.20
2019-03-26T11:23:08.772Z,3.50
2019-03-26T11:25:38.863Z,4.00
2019-03-26T11:28:09.013Z,3.50
2019-03-26T11:30:39.207Z,3.93
2019-03-26T11:33:09.681Z,3.73
2019-03-26T11:35:39.800Z,3.83
2019-03-26T11:38:10.292Z,3.77
2019-03-26T11:40:40.648Z,3.23
2019-03-26T11:43:11.457Z,3.83
2019-03-26T11:45:42.200Z,4.27
2019-03-26T11:48:12.419Z,3.57
2019-03-26T11:50:42.824Z,3.83
2019-03-26T11:53:12.913Z,3.63
2019-03-26T11:55:43.093Z,4.03
2019-03-26T11:58:13.700Z,3.77
2019-03-26T12:00:44.456Z,4.87
2019-03-26T12:03:14.868Z,3.80
2019-03-26T12:05:45.281Z,3.43
2019-03-26T12:08:15.367Z,3.57
2019-03-26T12:10:45.448Z,3.73
2019-03-26T12:13:16.089Z,3.17
2019-03-26T12:15:47.502Z,3.93
2019-03-26T12:18:17.944Z,3.90
2019-03-26T12:20:48.349Z,3.90
2019-03-26T12:23:18.427Z,3.93
2019-03-26T12:25:49.628Z,3.73
2019-03-26T12:28:31.409Z,4.17
2019-03-26T12:31:01.689Z,4.50
2019-03-26T12:33:32.081Z,3.50
2019-03-26T12:36:05.773Z,3.70
2019-03-26T12:38:36.185Z,3.17
2019-03-26T12:41:06.442Z,3.13
2019-03-26T12:43:36.822Z,2.40
2019-03-26T12:46:07.060Z,3.07
2019-03-26T12:48:37.147Z,2.60
2019-03-26T12:51:07.999Z,2.43
2019-03-26T12:53:38.080Z,3.30
2019-03-26T12:56:08.313Z,1.93
2019-03-26T12:58:38.396Z,2.47
2019-03-26T13:01:08.546Z,2.20
2019-03-26T13:03:44.832Z,2.23
2019-03-26T13:06:15.429Z,2.00
2019-03-26T13:08:45.780Z,2.13
2019-03-26T13:11:17.359Z,1.97
2019-03-26T13:13:56.827Z,2.00
2019-03-26T13:16:27.199Z,2.20
2019-03-26T13:18:57.349Z,3.63
2019-03-26T13:21:27.436Z,2.17
2019-03-26T13:23:57.865Z,1.93
2019-03-26T13:26:29.087Z,1.70
2019-03-26T13:28:59.533Z,2.40
2019-03-26T13:31:29.853Z,2.60
2019-03-26T13:34:00.589Z,2.60
2019-03-26T13:36:31.017Z,2.20
2019-03-26T13:39:01.084Z,2.33
2019-03-26T13:41:34.392Z,2.40
2019-03-26T13:44:04.947Z,3.03
2019-03-26T13:46:35.368Z,3.13
2019-03-26T13:49:05.906Z,2.43
2019-03-26T13:51:37.247Z,3.60
2019-03-26T13:54:07.601Z,2.60
2019-03-26T13:56:37.997Z,3.10
2019-03-26T13:59:08.157Z,2.67
2019-03-26T14:01:38.645Z,2.87
2019-03-26T14:04:08.733Z,3.67
2019-03-26T14:06:52.560Z,3.63
2019-03-26T14:09:23.336Z,4.10
2019-03-26T14:11:53.421Z,4.10
2019-03-26T14:14:23.774Z,3.77
2019-03-26T14:16:54.201Z,3.67
2019-03-26T14:19:24.933Z,4.10
2019-03-26T14:22:10.244Z,4.63
2019-03-26T14:24:40.321Z,3.83
2019-03-26T14:27:11.059Z,3.23
2019-03-26T14:29:41.166Z,3.70
2019-03-26T14:32:11.260Z,3.30
2019-03-26T14:34:41.716Z,4.00
2019-03-26T14:37:12.393Z,3.93
2019-03-26T14:39:42.492Z,3.60
2019-03-26T14:42:12.573Z,3.67
2019-03-26T14:44:42.909Z,4.07
2019-03-26T14:47:13.009Z,3.90
2019-03-26T14:49:43.088Z,3.63
2019-03-26T14:52:13.165Z,4.17
2019-03-26T14:54:43.582Z,3.83
2019-03-26T14:57:13.739Z,3.47
2019-03-26T14:59:44.131Z,3.90
2019-03-26T15:02:17.837Z,3.67
2019-03-26T15:04:48.156Z,3.50
2019-03-26T15:07:18.485Z,2.63
2019-03-26T15:09:48.573Z,2.87
2019-03-26T15:12:19.064Z,3.00
2019-03-26T15:14:49.160Z,2.70
2019-03-26T15:17:53.152Z,3.17
2019-03-26T15:20:23.677Z,2.27
2019-03-26T15:22:54.313Z,2.83
2019-03-26T15:25:24.634Z,2.73
2019-03-26T15:27:54.764Z,3.23
2019-03-26T15:30:25.178Z,2.93
2019-03-26T15:32:56.873Z,2.30
2019-03-26T15:35:27.263Z,3.23
2019-03-26T15:37:57.985Z,2.23
2019-03-26T15:40:28.721Z,2.53
2019-03-26T15:42:59.049Z,2.37
2019-03-26T15:45:29.246Z,2.27
2019-03-26T15:47:59.601Z,2.73
2019-03-26T15:50:38.971Z,3.17
2019-03-26T15:53:09.147Z,2.87
2019-03-26T15:55:39.365Z,3.20
2019-03-26T15:58:10.045Z,3.03
2019-03-26T16:00:40.599Z,3.30
2019-03-26T16:03:10.953Z,2.73
2019-03-26T16:05:41.378Z,3.00
2019-03-26T16:08:11.536Z,3.23
2019-03-26T16:10:41.736Z,3.07
2019-03-26T16:13:13.057Z,4.10
2019-03-26T16:15:45.043Z,3.30
2019-03-26T16:18:15.659Z,3.57
2019-03-26T16:20:45.906Z,4.17
2019-03-26T16:23:16.004Z,4.30
2019-03-26T16:25:46.321Z,4.90
2019-03-26T16:28:16.748Z,4.67
2019-03-26T16:30:47.125Z,4.30
2019-03-26T16:33:17.488Z,4.10
2019-03-26T16:35:47.616Z,4.60
2019-03-26T16:38:18.041Z,4.10
2019-03-26T16:40:48.177Z,4.29
2019-03-26T16:43:19.079Z,4.83
2019-03-26T16:45:49.963Z,4.20
2019-03-26T16:48:20.080Z,4.70
2019-03-26T16:50:50.244Z,5.12
2019-03-26T16:53:20.774Z,3.40
2019-03-26T16:55:51.026Z,4.27
2019-03-26T16:58:30.265Z,4.10
2019-03-26T17:01:00.640Z,4.27
2019-03-26T17:03:31.820Z,4.50
2019-03-26T17:06:02.174Z,4.20
2019-03-26T17:08:33.243Z,3.77
2019-03-26T17:11:03.469Z,3.03
2019-03-26T17:13:49.077Z,3.83
2019-03-26T17:16:19.509Z,3.83
2019-03-26T17:18:49.593Z,3.53
2019-03-26T17:21:19.788Z,3.60
2019-03-26T17:23:50.160Z,3.50
2019-03-26T17:26:20.248Z,3.70
2019-03-26T17:28:50.356Z,4.63
2019-03-26T17:31:22.641Z,3.80
2019-03-26T17:33:53.304Z,3.87
2019-03-26T17:36:23.467Z,5.33
2019-03-26T17:38:53.643Z,4.63
2019-03-26T17:41:23.731Z,4.43
2019-03-26T17:43:54.492Z,5.23
2019-03-26T17:46:24.677Z,4.10
2019-03-26T17:48:55.340Z,4.07
2019-03-26T17:51:25.773Z,4.97
2019-03-26T17:53:55.950Z,5.67
2019-03-26T17:56:26.416Z,5.50
2019-03-26T17:58:56.968Z,5.63
2019-03-26T18:01:27.601Z,5.30
2019-03-26T18:03:58.185Z,5.40
2019-03-26T18:06:28.526Z,5.77
2019-03-26T18:08:59.055Z,5.60
2019-03-26T18:11:29.200Z,6.63
2019-03-26T18:13:59.535Z,5.20
2019-03-26T18:16:30.624Z,5.60
2019-03-26T18:19:01.057Z,5.70
2019-03-26T18:21:31.187Z,5.00
2019-03-26T18:24:01.336Z,5.47
2019-03-26T18:26:44.658Z,5.20
2019-03-26T18:29:15.045Z,5.43
2019-03-26T18:31:45.275Z,5.57
2019-03-26T18:34:15.365Z,5.07
2019-03-26T18:36:45.490Z,5.60
2019-03-26T18:39:23.224Z,5.04
2019-03-26T18:41:53.353Z,4.77
2019-03-26T18:44:23.527Z,4.93
2019-03-26T18:46:53.637Z,4.90
2019-03-26T18:49:23.986Z,5.83
2019-03-26T18:51:54.738Z,5.67
2019-03-26T18:54:24.848Z,5.57
2019-03-26T18:56:55.581Z,5.83
2019-03-26T18:59:26.241Z,6.00
2019-03-26T19:01:56.573Z,5.77
2019-03-26T19:04:26.773Z,5.41
2019-03-26T19:06:57.131Z,5.37
2019-03-26T19:09:27.265Z,5.90
2019-03-26T19:11:57.609Z,5.17
2019-03-26T19:14:27.693Z,5.50
2019-03-26T19:16:57.844Z,5.50
2019-03-26T19:19:27.948Z,5.07
2019-03-26T19:21:58.044Z,4.63
2019-03-26T19:24:28.421Z,4.73
2019-03-26T19:26:58.928Z,4.83
2019-03-26T19:29:29.200Z,4.97
2019-03-26T19:31:59.287Z,5.10
2019-03-26T19:34:29.400Z,5.23
2019-03-26T19:37:01.326Z,5.17
2019-03-26T19:39:31.418Z,5.13
2019-03-26T19:42:01.789Z,4.73
2019-03-26T19:44:31.884Z,4.90
2019-03-26T19:47:02.042Z,5.50
2019-03-26T19:49:32.152Z,4.73
2019-03-26T19:52:02.249Z,5.70
2019-03-26T19:54:32.365Z,4.63
2019-03-26T19:57:02.700Z,4.97
2019-03-26T19:59:32.806Z,5.27
2019-03-26T20:02:03.249Z,5.60
2019-03-26T20:04:33.348Z,5.63
2019-03-26T20:07:03.709Z,5.27
2019-03-26T20:09:35.137Z,5.33
2019-03-26T20:12:05.313Z,5.17
2019-03-26T20:14:35.604Z,5.27
2019-03-26T20:17:06.205Z,5.27
2019-03-26T20:19:36.293Z,5.17
2019-03-26T20:22:06.508Z,5.90
2019-03-26T20:24:36.973Z,5.57
2019-03-26T20:27:07.477Z,5.67
2019-03-26T20:29:37.945Z,5.73
2019-03-26T20:32:08.354Z,6.17
2019-03-26T20:34:38.451Z,5.63
2019-03-26T20:37:08.845Z,6.40
2019-03-26T20:39:39.530Z,7.67
2019-03-26T20:42:09.957Z,6.73
2019-03-26T20:44:40.103Z,6.97
2019-03-26T20:47:10.500Z,7.23
2019-03-26T20:49:41.201Z,8.00
2019-03-26T20:52:11.381Z,8.23
2019-03-26T20:54:41.981Z,7.70
2019-03-26T20:57:12.157Z,7.77
2019-03-26T20:59:42.276Z,7.00
2019-03-26T21:02:12.845Z,7.40
2019-03-26T21:04:43.305Z,7.87
2019-03-26T21:07:13.512Z,7.60
2019-03-26T21:09:43.913Z,8.23
2019-03-26T21:12:14.320Z,7.47
2019-03-26T21:14:44.428Z,7.40
2019-03-26T21:17:14.504Z,7.83
2019-03-26T21:19:44.844Z,8.17
2019-03-26T21:22:15.216Z,8.80
2019-03-26T21:24:45.365Z,8.97
2019-03-26T21:27:15.482Z,7.77
2019-03-26T21:29:55.858Z,8.37
2019-03-26T21:32:26.245Z,8.47
2019-03-26T21:34:56.816Z,8.87
2019-03-26T21:37:27.264Z,8.87
2019-03-26T21:39:57.725Z,7.60
2019-03-26T21:42:28.149Z,8.50
2019-03-26T21:44:58.244Z,7.77
2019-03-26T21:47:28.324Z,7.70
2019-03-26T21:49:58.740Z,9.03
2019-03-26T21:52:28.912Z,8.83
2019-03-26T21:54:59.349Z,7.43
2019-03-26T21:57:29.459Z,8.10
2019-03-26T22:00:04.370Z,8.20
2019-03-26T22:02:34.504Z,8.80
2019-03-26T22:05:05.917Z,8.80
2019-03-26T22:07:36.497Z,8.97
2019-03-26T22:10:07.992Z,9.53
2019-03-26T22:12:38.244Z,9.97
2019-03-26T22:15:10.188Z,9.07
2019-03-26T22:17:40.632Z,9.17
2019-03-26T22:20:20.192Z,9.90
2019-03-26T22:22:50.352Z,10.63
2019-03-26T22:25:20.752Z,8.90
2019-03-26T22:27:51.165Z,9.43
2019-03-26T22:30:22.108Z,10.43
2019-03-26T22:32:52.279Z,10.07
2019-03-26T22:35:22.756Z,10.17
2019-03-26T22:37:52.844Z,11.37
2019-03-26T22:40:22.932Z,10.07
2019-03-26T22:42:53.047Z,10.73
2019-03-26T22:45:23.228Z,10.90
2019-03-26T22:47:53.340Z,10.30
2019-03-26T22:50:23.508Z,11.90
2019-03-26T22:52:53.608Z,10.83
2019-03-26T22:55:23.700Z,11.43
2019-03-26T22:57:53.797Z,11.37
2019-03-26T23:00:25.662Z,11.27
2019-03-26T23:02:55.758Z,10.57
2019-03-26T23:05:26.005Z,11.57
2019-03-26T23:07:56.134Z,11.17
2019-03-26T23:10:26.309Z,11.47
2019-03-26T23:12:56.616Z,13.17
2019-03-26T23:15:27.644Z,11.13
2019-03-26T23:17:57.813Z,11.43
2019-03-26T23:20:28.356Z,11.30
2019-03-26T23:22:58.540Z,12.00
2019-03-26T23:25:28.640Z,12.77
2019-03-26T23:27:59.131Z,13.07
2019-03-26T23:30:29.297Z,12.47
2019-03-26T23:32:59.414Z,12.20
2019-03-26T23:35:29.513Z,11.90
2019-03-26T23:37:59.599Z,11.53
2019-03-26T23:40:30.004Z,10.73
2019-03-26T23:43:00.163Z,10.83
2019-03-26T23:45:30.493Z,10.03
2019-03-26T23:48:00.684Z,12.03
2019-03-26T23:50:31.112Z,11.30
2019-03-26T23:53:01.276Z,12.33
2019-03-26T23:55:31.656Z,12.87
2019-03-26T23:58:02.041Z,12.63
